Time;durP1;ratioP1;P1;durP2;ratioP2;P2;SDS_P1;SDS_P2;PMS_P1;PMS_P2;Temp;Humidity;BMP_temperature;BMP_pressure;BME280_temperature;BME280_humidity;BME280_pressure;Samples;Min_cycle;Max_cycle;Signal;HPM_P1;HPM_P2
2022/11/03 00:02:24;;;;;;;1.23;1.23;;;7.20;99.90;;;;;;5076163;28;20193;-68
2022/11/03 00:04:50;;;;;;;0.50;0.50;;;7.00;99.90;;;;;;5076561;28;20217;-71
2022/11/03 00:07:20;;;;;;;0.30;0.30;;;7.00;99.90;;;;;;5076361;28;20171;-71
2022/11/03 00:09:46;;;;;;;7.05;1.63;;;7.00;99.90;;;;;;5075847;28;20193;-70
2022/11/03 00:12:12;;;;;;;0.40;0.40;;;6.90;99.90;;;;;;5076020;28;20602;-68
2022/11/03 00:14:37;;;;;;;0.40;0.40;;;6.90;99.90;;;;;;5075084;28;20704;-69
2022/11/03 00:17:03;;;;;;;3.43;0.60;;;6.90;99.90;;;;;;5075882;28;20190;-72
2022/11/03 00:19:28;;;;;;;1.73;1.63;;;7.00;99.90;;;;;;5075736;28;20190;-70
2022/11/03 00:21:57;;;;;;;0.40;0.40;;;7.00;99.90;;;;;;5075699;28;20186;-69
2022/11/03 00:24:22;;;;;;;0.30;0.30;;;7.00;99.90;;;;;;5075897;28;20167;-70
2022/11/03 00:26:48;;;;;;;0.60;0.60;;;7.00;99.90;;;;;;5075694;28;20198;-68
2022/11/03 00:29:14;;;;;;;0.30;0.30;;;6.90;99.90;;;;;;5075491;28;20171;-72
2022/11/03 00:31:42;;;;;;;0.57;0.57;;;6.90;99.90;;;;;;5075667;28;20181;-71
2022/11/03 00:34:10;;;;;;;2.15;1.25;;;6.90;99.90;;;;;;5075684;28;20168;-69
2022/11/03 00:36:37;;;;;;;0.30;0.30;;;6.80;99.90;;;;;;5075563;28;20190;-71
2022/11/03 00:39:04;;;;;;;0.32;0.32;;;6.90;99.90;;;;;;5075440;28;20254;-68
2022/11/03 00:41:29;;;;;;;0.70;0.70;;;6.90;99.90;;;;;;5075481;28;20201;-70
2022/11/03 00:43:56;;;;;;;0.50;0.50;;;7.00;99.90;;;;;;5075409;28;20162;-70
2022/11/03 00:46:23;;;;;;;0.40;0.40;;;7.10;99.90;;;;;;5075578;28;20174;-72
2022/11/03 00:48:49;;;;;;;0.50;0.50;;;7.10;99.90;;;;;;5075261;28;20199;-69
2022/11/03 00:51:20;;;;;;;0.38;0.38;;;7.20;99.90;;;;;;5075351;28;20242;-67
2022/11/03 00:53:51;;;;;;;0.35;0.35;;;7.30;99.90;;;;;;5075335;28;20270;-68
2022/11/03 00:56:19;;;;;;;0.38;0.38;;;7.20;99.90;;;;;;5075197;28;20209;-71
2022/11/03 00:58:45;;;;;;;0.30;0.30;;;7.10;99.90;;;;;;5075190;28;20270;-68
2022/11/03 01:01:17;;;;;;;0.40;0.40;;;7.00;99.90;;;;;;5075074;28;20185;-71
2022/11/03 01:06:48;;;;;;;0.40;0.40;;;7.00;99.90;;;;;;5075068;28;20378;-69
2022/11/03 01:06:50;;;;;;;2.15;1.02;;;6.90;99.90;;;;;;5074869;28;20590;-68
2022/11/03 01:09:48;;;;;;;0.40;0.40;;;6.90;99.90;;;;;;5074817;28;20167;-71
2022/11/03 01:12:17;;;;;;;0.40;0.40;;;7.00;99.90;;;;;;5020090;28;20251;-68
2022/11/03 01:14:51;;;;;;;0.43;0.43;;;6.90;99.90;;;;;;5074947;28;20219;-70
2022/11/03 01:17:25;;;;;;;0.50;0.40;;;6.90;99.90;;;;;;5074665;28;20233;-69
2022/11/03 01:19:51;;;;;;;0.40;0.40;;;6.80;99.90;;;;;;5074456;28;20176;-67
2022/11/03 01:22:18;;;;;;;0.40;0.40;;;6.90;99.90;;;;;;5074563;28;20174;-70
2022/11/03 01:24:44;;;;;;;0.70;0.70;;;6.90;99.90;;;;;;5074705;28;20583;-69
2022/11/03 01:27:12;;;;;;;0.40;0.40;;;6.90;99.90;;;;;;5074388;28;20200;-69
2022/11/03 01:29:38;;;;;;;0.30;0.30;;;6.90;99.90;;;;;;5074400;28;20165;-69
2022/11/03 01:32:04;;;;;;;0.30;0.30;;;7.10;99.90;;;;;;5074349;28;20205;-71
2022/11/03 01:34:30;;;;;;;0.30;0.30;;;6.90;99.90;;;;;;5074754;28;20524;-68
2022/11/03 01:36:55;;;;;;;0.30;0.30;;;7.00;99.90;;;;;;5074206;28;20265;-72
2022/11/03 01:39:21;;;;;;;0.50;0.50;;;6.90;99.90;;;;;;5074253;28;20568;-69
2022/11/03 01:41:49;;;;;;;0.40;0.40;;;6.90;99.90;;;;;;5074186;28;20235;-71
2022/11/03 01:44:14;;;;;;;0.40;0.40;;;6.90;99.90;;;;;;5074162;28;20199;-71
2022/11/03 01:47:01;;;;;;;0.40;0.40;;;6.90;99.90;;;;;;5074255;28;20193;-70
2022/11/03 01:49:48;;;;;;;0.30;0.30;;;6.90;99.90;;;;;;5074082;28;20166;-69
2022/11/03 01:52:19;;;;;;;1.15;1.10;;;6.90;99.90;;;;;;5074043;28;20167;-71
2022/11/03 01:54:49;;;;;;;0.38;0.38;;;6.90;99.90;;;;;;5074067;28;20167;-69
2022/11/03 01:57:20;;;;;;;0.40;0.40;;;7.00;99.90;;;;;;5073989;28;20201;-67
2022/11/03 01:59:47;;;;;;;0.45;0.45;;;7.20;99.90;;;;;;5073863;28;20639;-70
2022/11/03 02:02:13;;;;;;;0.30;0.30;;;7.10;99.90;;;;;;5073987;28;20188;-69
2022/11/03 02:04:39;;;;;;;0.53;0.53;;;7.10;99.90;;;;;;5074292;28;20166;-70
2022/11/03 02:07:15;;;;;;;0.60;0.60;;;7.10;99.90;;;;;;5074058;28;20201;-69
2022/11/03 02:09:41;;;;;;;1.40;1.30;;;7.00;99.90;;;;;;5073658;28;20249;-69
2022/11/03 02:12:07;;;;;;;1.13;1.13;;;7.00;99.90;;;;;;5073668;28;20243;-71
2022/11/03 02:14:49;;;;;;;0.52;0.40;;;6.90;99.90;;;;;;5073918;28;20178;-69
2022/11/03 02:17:16;;;;;;;1.65;1.58;;;7.00;99.90;;;;;;5073490;28;20198;-69
2022/11/03 02:19:55;;;;;;;0.40;0.40;;;7.00;99.90;;;;;;5073687;28;20173;-68
2022/11/03 02:22:39;;;;;;;0.70;0.70;;;6.90;99.90;;;;;;5073663;28;20166;-67
2022/11/03 02:25:15;;;;;;;0.30;0.30;;;6.90;99.90;;;;;;5073663;28;20198;-71
2022/11/03 02:27:41;;;;;;;0.40;0.40;;;7.00;99.90;;;;;;5073589;28;20200;-69
2022/11/03 02:30:07;;;;;;;0.32;0.32;;;7.00;99.90;;;;;;5073537;28;20544;-69
2022/11/03 02:32:47;;;;;;;0.30;0.30;;;7.10;99.90;;;;;;5073628;28;20178;-69
2022/11/03 02:35:55;;;;;;;0.50;0.50;;;7.10;99.90;;;;;;5073689;28;20185;-71
2022/11/03 02:38:24;;;;;;;0.40;0.40;;;7.00;99.90;;;;;;4972124;28;20263;-69
2022/11/03 02:40:53;;;;;;;0.30;0.30;;;7.00;99.90;;;;;;4972571;28;20197;-72
2022/11/03 02:43:21;;;;;;;0.43;0.43;;;7.00;99.90;;;;;;5023823;28;20215;-70
2022/11/03 02:45:48;;;;;;;0.30;0.30;;;7.00;99.90;;;;;;5073560;28;20264;-68
2022/11/03 02:48:16;;;;;;;0.30;0.30;;;7.00;99.90;;;;;;5073457;28;20174;-69
2022/11/03 02:50:42;;;;;;;1.10;0.75;;;6.90;99.90;;;;;;5073185;28;20309;-72
2022/11/03 02:53:12;;;;;;;0.40;0.40;;;7.00;99.90;;;;;;5073349;28;20174;-69
2022/11/03 02:56:22;;;;;;;0.40;0.40;;;7.10;99.90;;;;;;5073384;28;20182;-68
2022/11/03 02:59:03;;;;;;;0.40;0.40;;;7.10;99.90;;;;;;5017805;28;20221;-68
2022/11/03 03:01:47;;;;;;;0.63;0.47;;;7.00;99.90;;;;;;5073259;28;20198;-69
2022/11/03 03:04:27;;;;;;;0.40;0.40;;;7.00;99.90;;;;;;5073461;28;20312;-71
2022/11/03 03:07:04;;;;;;;0.30;0.30;;;7.00;99.90;;;;;;5073343;28;20179;-71
2022/11/03 03:09:52;;;;;;;0.50;0.50;;;7.00;99.90;;;;;;5073257;28;20166;-70
2022/11/03 03:12:20;;;;;;;0.38;0.38;;;7.10;99.90;;;;;;5073173;28;20237;-69
2022/11/03 03:14:49;;;;;;;0.50;0.50;;;7.00;99.90;;;;;;5073260;28;20291;-70
2022/11/03 03:17:36;;;;;;;0.32;0.32;;;7.10;99.90;;;;;;5073130;28;20198;-70
2022/11/03 03:20:13;;;;;;;0.50;0.50;;;7.00;99.90;;;;;;5072872;28;20195;-72
2022/11/03 03:22:45;;;;;;;0.60;0.60;;;7.00;99.90;;;;;;5073018;28;20186;-72
2022/11/03 03:25:18;;;;;;;0.30;0.30;;;7.00;99.90;;;;;;5073082;28;20192;-71
2022/11/03 03:27:50;;;;;;;1.02;0.93;;;6.90;99.90;;;;;;5073215;28;20169;-69
2022/11/03 03:30:17;;;;;;;0.88;0.88;;;6.80;99.90;;;;;;5072709;28;20746;-68
2022/11/03 03:32:47;;;;;;;1.35;1.05;;;6.80;99.90;;;;;;5072906;28;20174;-69
2022/11/03 03:35:22;;;;;;;1.50;1.50;;;6.90;99.90;;;;;;5073144;28;20265;-69
2022/11/03 03:37:51;;;;;;;1.70;1.70;;;6.90;99.90;;;;;;5073064;28;20200;-69
2022/11/03 03:40:24;;;;;;;0.40;0.40;;;6.90;99.90;;;;;;5072621;28;20624;-71
2022/11/03 03:42:51;;;;;;;0.40;0.40;;;7.00;99.90;;;;;;5073063;28;20249;-70
2022/11/03 03:45:19;;;;;;;0.60;0.60;;;7.10;99.90;;;;;;5073142;28;20197;-70
2022/11/03 03:47:45;;;;;;;6.18;1.65;;;7.20;99.90;;;;;;5072903;28;20174;-71
2022/11/03 03:50:12;;;;;;;0.40;0.40;;;7.20;99.90;;;;;;5075009;28;20188;-69
2022/11/03 03:52:37;;;;;;;0.50;0.50;;;7.20;99.90;;;;;;5076366;28;20593;-68
2022/11/03 03:55:06;;;;;;;0.80;0.53;;;7.20;99.90;;;;;;5076527;28;20187;-69
2022/11/03 03:57:32;;;;;;;4.03;1.27;;;7.10;99.90;;;;;;5076153;28;20194;-69
2022/11/03 03:59:58;;;;;;;0.50;0.50;;;7.00;99.90;;;;;;5076080;28;20182;-68
2022/11/03 04:02:23;;;;;;;1.27;1.27;;;7.10;99.90;;;;;;5076265;28;20407;-67
2022/11/03 04:04:49;;;;;;;0.40;0.40;;;7.20;99.90;;;;;;5076450;28;20171;-70
2022/11/03 04:09:59;;;;;;;0.35;0.35;;;7.40;99.90;;;;;;5075879;28;20190;-69
2022/11/03 04:23:29;;;;;;;0.30;0.30;;;7.10;99.90;;;;;;5075912;28;20249;-71
2022/11/03 04:25:56;;;;;;;0.70;0.70;;;7.10;99.90;;;;;;5075646;28;20260;-69
2022/11/03 04:28:23;;;;;;;0.70;0.63;;;7.20;99.90;;;;;;5075892;28;20563;-69
2022/11/03 04:30:48;;;;;;;0.40;0.40;;;7.30;99.90;;;;;;5074181;28;20572;-70
2022/11/03 04:33:17;;;;;;;0.40;0.40;;;7.30;99.90;;;;;;5075695;28;20176;-70
2022/11/03 04:35:43;;;;;;;0.30;0.30;;;7.30;99.90;;;;;;5075700;28;20258;-72
2022/11/03 04:38:14;;;;;;;1.02;1.02;;;7.30;99.90;;;;;;5075564;28;20254;-69
2022/11/03 04:40:44;;;;;;;0.50;0.50;;;7.30;99.90;;;;;;5075200;28;20278;-69
2022/11/03 04:43:12;;;;;;;1.30;1.25;;;7.30;99.90;;;;;;5075411;28;20178;-71
2022/11/03 04:45:38;;;;;;;0.50;0.50;;;7.30;99.90;;;;;;5075390;28;20193;-70
2022/11/03 04:48:15;;;;;;;2.63;0.97;;;7.20;99.90;;;;;;5075401;28;20166;-71
2022/11/03 04:50:42;;;;;;;0.40;0.40;;;7.30;99.90;;;;;;5075182;28;20466;-69
2022/11/03 04:53:13;;;;;;;0.40;0.40;;;7.30;99.90;;;;;;5075146;28;20543;-69
2022/11/03 04:55:40;;;;;;;0.40;0.40;;;7.20;99.90;;;;;;5075147;28;20515;-70
2022/11/03 04:58:27;;;;;;;0.82;0.82;;;7.20;99.90;;;;;;5073810;28;20212;-70
2022/11/03 05:00:58;;;;;;;0.50;0.40;;;7.30;99.90;;;;;;5075096;28;20186;-68
2022/11/03 05:03:31;;;;;;;0.40;0.40;;;7.20;99.90;;;;;;5075045;28;20220;-69
2022/11/03 05:05:57;;;;;;;0.40;0.40;;;7.20;99.90;;;;;;5075183;28;20171;-68
2022/11/03 05:08:23;;;;;;;0.40;0.40;;;7.20;99.90;;;;;;5075108;28;20174;-69
2022/11/03 05:10:49;;;;;;;0.40;0.40;;;7.20;99.90;;;;;;5074744;28;20195;-71
2022/11/03 05:13:24;;;;;;;0.40;0.40;;;7.10;99.90;;;;;;5074823;28;20177;-71
2022/11/03 05:15:53;;;;;;;1.15;1.15;;;7.10;99.90;;;;;;5074992;28;20177;-71
2022/11/03 05:18:29;;;;;;;1.30;1.30;;;7.10;99.90;;;;;;5074798;28;20199;-68
2022/11/03 05:21:17;;;;;;;1.27;1.17;;;7.10;99.90;;;;;;5074656;28;20200;-68
2022/11/03 05:23:51;;;;;;;0.50;0.50;;;7.10;99.90;;;;;;5074404;28;20195;-70
2022/11/03 05:26:24;;;;;;;0.50;0.50;;;7.10;99.90;;;;;;5074640;28;20227;-71
2022/11/03 05:29:09;;;;;;;1.38;1.10;;;7.00;99.90;;;;;;5074815;28;20167;-71
2022/11/03 05:31:36;;;;;;;1.70;1.60;;;7.10;99.90;;;;;;5074487;28;20704;-68
2022/11/03 05:34:23;;;;;;;0.75;0.75;;;7.20;99.90;;;;;;5074513;28;20683;-71
2022/11/03 05:36:49;;;;;;;0.77;0.77;;;7.20;99.90;;;;;;5056958;28;20214;-71
2022/11/03 05:39:35;;;;;;;0.60;0.60;;;7.10;99.90;;;;;;5074329;28;20202;-68
2022/11/03 05:42:13;;;;;;;0.50;0.50;;;7.10;99.90;;;;;;5074265;28;20190;-69
2022/11/03 05:44:39;;;;;;;0.43;0.43;;;7.20;99.90;;;;;;5074465;28;20533;-68
2022/11/03 05:47:26;;;;;;;0.30;0.30;;;7.30;99.90;;;;;;5074364;28;20227;-70
2022/11/03 05:50:00;;;;;;;1.58;1.42;;;7.20;99.90;;;;;;5074074;28;20592;-71
2022/11/03 05:52:27;;;;;;;0.85;0.82;;;7.30;99.90;;;;;;5074127;28;20147;-69
2022/11/03 05:54:56;;;;;;;0.40;0.40;;;7.50;99.90;;;;;;5074119;28;20175;-71
2022/11/03 05:57:24;;;;;;;0.40;0.40;;;7.50;99.90;;;;;;5074076;28;20211;-71
2022/11/03 05:59:51;;;;;;;0.40;0.40;;;7.80;99.90;;;;;;5073663;28;20179;-71
2022/11/03 06:02:38;;;;;;;0.60;0.60;;;7.70;99.90;;;;;;5074134;28;20168;-71
2022/11/03 06:05:18;;;;;;;0.30;0.30;;;7.70;99.90;;;;;;5074092;28;20582;-69
2022/11/03 06:07:44;;;;;;;0.98;0.98;;;7.80;99.90;;;;;;5074117;28;20259;-71
2022/11/03 06:10:22;;;;;;;6.67;1.27;;;7.80;99.90;;;;;;5073560;28;20238;-71
2022/11/03 06:12:48;;;;;;;0.40;0.40;;;7.90;99.90;;;;;;5073090;28;20169;-71
2022/11/03 06:15:34;;;;;;;2.50;0.50;;;8.00;99.90;;;;;;5073805;28;20201;-69
2022/11/03 06:18:17;;;;;;;0.65;0.52;;;8.10;99.90;;;;;;5073801;28;20495;-68
2022/11/03 06:20:57;;;;;;;0.50;0.50;;;8.10;99.90;;;;;;5073467;28;20205;-72
2022/11/03 06:23:22;;;;;;;1.80;1.63;;;8.20;99.90;;;;;;5073903;28;20228;-71
2022/11/03 06:25:51;;;;;;;0.87;0.83;;;8.30;99.90;;;;;;5073448;28;20646;-70
2022/11/03 06:28:28;;;;;;;0.70;0.70;;;8.40;99.90;;;;;;5073769;28;20398;-71
2022/11/03 06:30:55;;;;;;;1.20;0.73;;;8.40;99.90;;;;;;5073547;28;20195;-72
2022/11/03 06:33:28;;;;;;;0.68;0.68;;;8.50;99.90;;;;;;5073479;28;20202;-70
2022/11/03 06:35:59;;;;;;;1.30;1.20;;;8.40;99.90;;;;;;5073748;28;20534;-70
2022/11/03 06:38:28;;;;;;;0.70;0.70;;;8.50;99.90;;;;;;5073626;28;20265;-69
2022/11/03 06:40:55;;;;;;;1.05;1.05;;;8.50;99.90;;;;;;5073201;28;20196;-69
2022/11/03 06:43:30;;;;;;;0.40;0.40;;;8.60;99.90;;;;;;5073381;28;20196;-71
2022/11/03 06:46:01;;;;;;;2.08;1.88;;;8.70;99.90;;;;;;5073625;28;20156;-70
2022/11/03 06:48:33;;;;;;;1.02;1.02;;;8.80;99.90;;;;;;5073356;28;20207;-71
2022/11/03 06:50:59;;;;;;;0.47;0.47;;;8.90;99.90;;;;;;5073206;28;20203;-69
2022/11/03 06:53:31;;;;;;;0.60;0.60;;;8.90;99.90;;;;;;5072063;28;20168;-72
2022/11/03 06:55:57;;;;;;;0.30;0.30;;;9.00;99.90;;;;;;5073506;28;20176;-71
2022/11/03 06:58:41;;;;;;;2.15;2.05;;;9.10;99.90;;;;;;5073169;28;20219;-69
2022/11/03 07:01:30;;;;;;;2.47;2.35;;;9.20;99.90;;;;;;5072954;28;20317;-70
2022/11/03 07:04:02;;;;;;;0.77;0.77;;;9.30;99.90;;;;;;5073403;28;20252;-69
2022/11/03 07:06:35;;;;;;;0.40;0.40;;;9.40;99.90;;;;;;5073343;28;20231;-68
2022/11/03 07:09:05;;;;;;;2.70;1.15;;;9.30;99.90;;;;;;5073430;28;20193;-70
2022/11/03 07:11:35;;;;;;;2.05;1.70;;;9.30;99.90;;;;;;5073121;28;20189;-70
2022/11/03 07:14:19;;;;;;;0.82;0.82;;;9.30;99.90;;;;;;5073352;28;20166;-71
2022/11/03 07:17:04;;;;;;;1.90;1.80;;;9.40;99.90;;;;;;5073125;28;20662;-71
2022/11/03 07:19:40;;;;;;;0.82;0.82;;;9.50;99.90;;;;;;5073085;28;20185;-70
2022/11/03 07:22:13;;;;;;;2.03;1.67;;;9.50;99.90;;;;;;5073111;28;20251;-70
2022/11/03 07:24:42;;;;;;;1.17;1.17;;;9.50;99.90;;;;;;5076709;28;20631;-68
2022/11/03 07:27:20;;;;;;;7.57;2.33;;;9.70;99.90;;;;;;5075661;28;20669;-69
2022/11/03 07:29:48;;;;;;;1.13;1.02;;;9.80;99.90;;;;;;5076658;28;20185;-71
2022/11/03 07:32:34;;;;;;;2.00;1.95;;;9.90;99.90;;;;;;5076767;28;20174;-68
2022/11/03 07:35:16;;;;;;;2.15;1.85;;;10.00;99.90;;;;;;5076736;28;20260;-70
2022/11/03 07:37:46;;;;;;;0.50;0.50;;;10.10;99.90;;;;;;5076774;28;20205;-71
2022/11/03 07:40:22;;;;;;;0.95;0.95;;;10.00;99.90;;;;;;5076452;28;20232;-71
2022/11/03 07:42:49;;;;;;;5.35;1.70;;;9.90;99.90;;;;;;5076746;28;20161;-71
2022/11/03 07:45:38;;;;;;;0.47;0.47;;;9.90;99.90;;;;;;5076833;28;20174;-71
2022/11/03 07:48:15;;;;;;;2.17;2.08;;;10.00;99.90;;;;;;5076691;28;20629;-71
2022/11/03 07:50:41;;;;;;;0.98;0.93;;;10.20;99.90;;;;;;5076195;28;20581;-69
2022/11/03 07:53:20;;;;;;;1.02;1.02;;;10.30;99.90;;;;;;5076723;28;20181;-70
2022/11/03 07:55:46;;;;;;;0.85;0.85;;;10.40;99.90;;;;;;5076545;28;20175;-72
2022/11/03 07:58:49;;;;;;;0.93;0.93;;;10.50;99.90;;;;;;5076372;28;20201;-68
2022/11/03 08:01:55;;;;;;;0.70;0.70;;;10.70;99.90;;;;;;5071193;28;20288;-70
2022/11/03 08:04:24;;;;;;;0.70;0.70;;;10.90;99.90;;;;;;5062490;28;20213;-71
2022/11/03 08:06:50;;;;;;;6.53;1.88;;;11.10;99.90;;;;;;5076059;28;20169;-70
2022/11/03 08:09:17;;;;;;;1.48;0.73;;;11.30;99.90;;;;;;5075905;28;20176;-70
2022/11/03 08:11:43;;;;;;;2.67;1.13;;;11.40;99.90;;;;;;5075932;28;20186;-68
2022/11/03 08:14:09;;;;;;;0.60;0.60;;;11.60;99.90;;;;;;5076227;28;20506;-69
2022/11/03 08:16:35;;;;;;;0.40;0.40;;;11.70;99.90;;;;;;5076073;28;20169;-70
2022/11/03 08:19:01;;;;;;;2.67;1.60;;;11.70;99.90;;;;;;5075796;28;20455;-69
2022/11/03 08:21:27;;;;;;;0.97;0.97;;;11.80;99.90;;;;;;5075775;28;20441;-69
2022/11/03 08:23:53;;;;;;;3.43;3.20;;;12.40;99.90;;;;;;5075767;28;20404;-70
2022/11/03 08:26:19;;;;;;;0.53;0.53;;;13.00;99.90;;;;;;5075733;28;20419;-72
2022/11/03 08:28:45;;;;;;;2.00;1.90;;;13.50;99.90;;;;;;5075625;28;20735;-69
2022/11/03 08:31:11;;;;;;;3.00;1.60;;;13.70;99.90;;;;;;5075844;28;20427;-69
2022/11/03 08:33:36;;;;;;;1.67;1.57;;;13.80;99.90;;;;;;5075735;28;20654;-69
2022/11/03 08:36:03;;;;;;;1.07;0.97;;;14.00;99.90;;;;;;5075012;28;20170;-71
2022/11/03 08:38:29;;;;;;;1.03;1.03;;;14.50;99.50;;;;;;5075479;28;20557;-70
2022/11/03 08:41:00;;;;;;;8.83;1.77;;;15.20;99.10;;;;;;5075107;28;20422;-71
2022/11/03 08:43:26;;;;;;;1.10;1.10;;;15.60;98.90;;;;;;5075715;28;20403;-72
2022/11/03 08:45:54;;;;;;;0.73;0.73;;;16.00;97.70;;;;;;5075773;28;20404;-71
2022/11/03 08:48:20;;;;;;;1.40;1.20;;;16.20;94.90;;;;;;5075631;28;20173;-70
2022/11/03 08:50:47;;;;;;;0.80;0.70;;;16.50;94.20;;;;;;5075070;28;20427;-71
2022/11/03 08:53:12;;;;;;;2.10;1.90;;;17.30;93.80;;;;;;5075399;28;20415;-71
2022/11/03 08:55:38;;;;;;;1.53;1.20;;;18.10;92.50;;;;;;5075270;28;20403;-71
2022/11/03 08:58:04;;;;;;;1.67;1.57;;;18.80;90.40;;;;;;5075195;28;20542;-72
2022/11/03 09:00:29;;;;;;;2.33;2.20;;;19.50;88.10;;;;;;5075054;28;20193;-72
2022/11/03 09:02:55;;;;;;;3.73;2.30;;;20.50;85.10;;;;;;5075057;28;20166;-71
2022/11/03 09:05:20;;;;;;;2.07;1.97;;;21.70;82.70;;;;;;5075145;28;20173;-69
2022/11/03 09:07:46;;;;;;;1.17;1.17;;;22.90;77.80;;;;;;5074969;28;20249;-70
2022/11/03 09:10:12;;;;;;;1.97;1.87;;;23.60;73.20;;;;;;5074791;28;20637;-72
2022/11/03 09:12:37;;;;;;;1.00;0.80;;;23.80;69.50;;;;;;5075048;28;20664;-70
2022/11/03 09:15:05;;;;;;;1.93;1.83;;;23.70;68.00;;;;;;5074982;28;20240;-70
2022/11/03 09:17:30;;;;;;;1.73;1.63;;;23.80;68.30;;;;;;5074929;28;20537;-71
2022/11/03 09:19:56;;;;;;;1.07;1.00;;;24.30;86.00;;;;;;5074506;28;20418;-71
2022/11/03 09:22:22;;;;;;;0.87;0.80;;;24.20;68.40;;;;;;5074687;28;20660;-72
2022/11/03 09:24:48;;;;;;;0.97;0.67;;;24.90;65.10;;;;;;5074693;28;20392;-70
2022/11/03 09:27:13;;;;;;;1.53;1.43;;;25.70;61.20;;;;;;5074421;28;20219;-71
2022/11/03 09:29:39;;;;;;;1.37;1.27;;;26.00;60.00;;;;;;5074409;28;20169;-70
2022/11/03 09:32:05;;;;;;;0.80;0.80;;;26.10;57.70;;;;;;5074405;28;20567;-71
2022/11/03 09:34:31;;;;;;;1.37;1.10;;;25.40;58.60;;;;;;5074350;28;20240;-71
2022/11/03 09:36:56;;;;;;;0.40;0.40;;;25.30;59.20;;;;;;5074195;28;20165;-72
2022/11/03 09:39:22;;;;;;;1.73;0.80;;;25.20;59.00;;;;;;5074130;28;20402;-71
2022/11/03 09:41:49;;;;;;;0.60;0.60;;;24.90;58.50;;;;;;5074238;28;20276;-71
2022/11/03 09:44:14;;;;;;;0.60;0.60;;;24.40;58.10;;;;;;5074222;28;20223;-71
2022/11/03 09:46:40;;;;;;;1.17;1.07;;;23.80;58.30;;;;;;5073403;28;20889;-70
2022/11/03 09:49:06;;;;;;;0.40;0.40;;;23.00;58.70;;;;;;5074158;28;20197;-72
2022/11/03 09:51:34;;;;;;;0.37;0.37;;;21.70;58.70;;;;;;5074011;28;20555;-71
2022/11/03 09:54:03;;;;;;;0.30;0.30;;;20.70;60.80;;;;;;5074341;28;20230;-69
2022/11/03 09:56:30;;;;;;;0.60;0.40;;;20.10;63.20;;;;;;5073992;28;20384;-71
2022/11/03 09:58:55;;;;;;;0.37;0.37;;;19.60;63.20;;;;;;5073991;28;20447;-69
2022/11/03 10:01:22;;;;;;;0.70;0.70;;;19.40;63.10;;;;;;5074007;28;20424;-72
2022/11/03 10:03:48;;;;;;;0.57;0.40;;;19.20;63.90;;;;;;5073852;28;20419;-71
2022/11/03 10:06:15;;;;;;;0.30;0.30;;;19.40;62.70;;;;;;5073850;28;20393;-72
2022/11/03 10:08:44;;;;;;;0.40;0.40;;;19.80;61.90;;;;;;5073980;28;20166;-72
2022/11/03 10:11:10;;;;;;;0.83;0.60;;;20.00;60.70;;;;;;5073799;28;20925;-70
2022/11/03 10:13:39;;;;;;;0.43;0.40;;;19.90;59.80;;;;;;5073737;28;20465;-72
2022/11/03 10:16:10;;;;;;;0.30;0.30;;;19.70;59.70;;;;;;5073890;28;20407;-70
2022/11/03 10:18:37;;;;;;;0.60;0.60;;;19.80;60.60;;;;;;5073854;28;20449;-71
2022/11/03 10:21:13;;;;;;;0.40;0.40;;;19.90;58.50;;;;;;5073416;28;20567;-71
2022/11/03 10:23:38;;;;;;;0.40;0.40;;;19.80;58.80;;;;;;5073888;28;20387;-70
2022/11/03 10:26:09;;;;;;;1.33;0.83;;;19.50;58.20;;;;;;5073545;28;20609;-69
2022/11/03 10:28:36;;;;;;;1.03;1.03;;;19.10;59.10;;;;;;5073769;28;20260;-71
2022/11/03 10:31:08;;;;;;;0.40;0.40;;;18.60;60.40;;;;;;5073365;28;20494;-70
2022/11/03 10:33:39;;;;;;;0.50;0.50;;;18.30;61.10;;;;;;5073647;28;20429;-69
2022/11/03 10:36:22;;;;;;;0.40;0.40;;;18.30;62.20;;;;;;5073484;28;20400;-72
2022/11/03 10:38:48;;;;;;;0.40;0.40;;;18.10;61.10;;;;;;5073470;28;20956;-71
2022/11/03 10:41:19;;;;;;;0.70;0.70;;;17.90;61.60;;;;;;5073399;28;20430;-71
2022/11/03 10:44:02;;;;;;;0.77;0.77;;;17.80;62.30;;;;;;5073412;28;20176;-70
2022/11/03 10:46:28;;;;;;;0.50;0.50;;;17.80;61.30;;;;;;5073412;28;20754;-70
2022/11/03 10:49:20;;;;;;;1.27;0.60;;;17.60;61.70;;;;;;5073359;28;20409;-69
2022/11/03 10:51:51;;;;;;;0.50;0.50;;;17.50;62.90;;;;;;5068689;28;20451;-71
2022/11/03 10:54:19;;;;;;;0.73;0.73;;;17.30;62.90;;;;;;5073573;28;20400;-69
2022/11/03 10:56:47;;;;;;;0.67;0.67;;;17.20;63.60;;;;;;5073395;28;20400;-70
2022/11/03 10:59:39;;;;;;;0.60;0.50;;;17.20;64.20;;;;;;5076079;28;20458;-69
2022/11/03 11:02:15;;;;;;;0.80;0.80;;;17.20;64.60;;;;;;5073000;28;20439;-71
2022/11/03 11:04:40;;;;;;;0.40;0.40;;;17.20;65.20;;;;;;5077530;28;20821;-70
2022/11/03 11:07:18;;;;;;;0.47;0.47;;;17.20;65.30;;;;;;5077673;28;20396;-70
2022/11/03 11:09:44;;;;;;;1.03;0.90;;;17.10;65.30;;;;;;5077202;28;20169;-69
2022/11/03 11:12:18;;;;;;;0.60;0.60;;;17.10;65.20;;;;;;5077064;28;20427;-69
2022/11/03 11:15:01;;;;;;;0.60;0.60;;;17.10;64.90;;;;;;5077142;28;20191;-69
2022/11/03 11:17:46;;;;;;;0.50;0.50;;;17.00;64.50;;;;;;5077208;28;20451;-71
2022/11/03 11:20:21;;;;;;;0.50;0.47;;;16.90;64.60;;;;;;5076965;28;20770;-69
2022/11/03 11:22:48;;;;;;;0.70;0.60;;;16.80;64.80;;;;;;5076859;28;20388;-72
2022/11/03 11:25:16;;;;;;;0.67;0.67;;;16.70;65.60;;;;;;5076923;28;20424;-70
2022/11/03 11:27:45;;;;;;;1.23;0.70;;;16.70;66.80;;;;;;5077120;28;20833;-72
2022/11/03 11:30:19;;;;;;;0.50;0.50;;;16.80;66.10;;;;;;5076616;28;20423;-71
2022/11/03 11:32:45;;;;;;;3.03;0.67;;;16.80;65.50;;;;;;5076897;28;20399;-72
2022/11/03 11:35:15;;;;;;;0.60;0.60;;;16.70;66.00;;;;;;5076609;28;20445;-73
2022/11/03 11:37:41;;;;;;;0.40;0.40;;;16.50;67.60;;;;;;5076650;28;20768;-71
2022/11/03 11:40:30;;;;;;;1.73;1.30;;;16.40;89.60;;;;;;5076440;28;20399;-71
2022/11/03 11:43:02;;;;;;;0.83;0.83;;;16.30;68.60;;;;;;5063354;28;20425;-71
2022/11/03 11:46:05;;;;;;;0.70;0.50;;;16.40;68.90;;;;;;5076752;28;20396;-70
2022/11/03 11:48:32;;;;;;;1.37;0.60;;;16.50;69.30;;;;;;5076538;28;20399;-71
2022/11/03 11:50:58;;;;;;;0.40;0.40;;;16.70;69.60;;;;;;5076219;28;20423;-69
2022/11/03 11:53:25;;;;;;;0.80;0.80;;;16.70;68.70;;;;;;5076425;28;20403;-69
2022/11/03 11:56:01;;;;;;;0.83;0.80;;;16.40;69.00;;;;;;5076526;28;20400;-69
2022/11/03 11:58:48;;;;;;;0.50;0.50;;;16.30;69.50;;;;;;5076464;28;20458;-69
2022/11/03 12:01:30;;;;;;;1.13;0.80;;;16.20;70.10;;;;;;5076254;28;20423;-69
2022/11/03 12:04:00;;;;;;;0.60;0.60;;;16.30;70.90;;;;;;5076364;28;20420;-69
2022/11/03 12:06:37;;;;;;;1.33;1.23;;;16.30;72.20;;;;;;5076274;28;20398;-69
2022/11/03 12:09:12;;;;;;;0.50;0.50;;;16.30;70.90;;;;;;5074401;28;20941;-71
2022/11/03 12:12:00;;;;;;;1.03;1.03;;;16.20;73.10;;;;;;5075544;28;20454;-71
2022/11/03 12:14:29;;;;;;;1.10;1.10;;;16.10;73.00;;;;;;5076375;28;20928;-71
2022/11/03 12:16:56;;;;;;;0.80;0.80;;;16.20;74.50;;;;;;5076140;28;20404;-72
2022/11/03 12:19:35;;;;;;;0.50;0.50;;;16.30;74.30;;;;;;5075715;28;20446;-71
2022/11/03 12:22:27;;;;;;;0.53;0.50;;;16.40;72.80;;;;;;5075824;28;20411;-72
2022/11/03 12:25:00;;;;;;;0.40;0.40;;;16.30;72.10;;;;;;5063200;28;20408;-72
2022/11/03 12:27:26;;;;;;;0.40;0.40;;;16.20;73.30;;;;;;5076017;28;20403;-69
2022/11/03 12:29:56;;;;;;;0.93;0.93;;;16.10;81.90;;;;;;5075697;28;20750;-69
2022/11/03 12:32:22;;;;;;;0.80;0.80;;;16.10;74.00;;;;;;5075929;28;20252;-70
2022/11/03 12:34:48;;;;;;;0.63;0.50;;;16.10;74.60;;;;;;5075766;28;20402;-71
2022/11/03 12:37:14;;;;;;;0.90;0.63;;;16.10;74.80;;;;;;5075679;28;20490;-69
2022/11/03 12:39:40;;;;;;;0.77;0.77;;;16.00;75.10;;;;;;5075534;28;20494;-71
2022/11/03 12:42:06;;;;;;;0.63;0.63;;;15.80;75.40;;;;;;5075643;28;20186;-69
2022/11/03 12:44:32;;;;;;;0.97;0.97;;;15.60;76.20;;;;;;5075704;28;20172;-69
2022/11/03 12:47:00;;;;;;;0.50;0.50;;;15.30;78.20;;;;;;5075898;28;20403;-69
2022/11/03 12:49:26;;;;;;;0.40;0.40;;;15.20;79.10;;;;;;5075398;28;20752;-69
2022/11/03 12:51:51;;;;;;;0.97;0.90;;;15.20;79.80;;;;;;5075358;28;20427;-71
2022/11/03 12:54:17;;;;;;;1.60;1.60;;;15.20;79.80;;;;;;5075466;28;20977;-70
2022/11/03 12:56:43;;;;;;;0.73;0.73;;;15.10;79.60;;;;;;5073991;28;20281;-71
2022/11/03 12:59:08;;;;;;;0.87;0.60;;;15.10;80.00;;;;;;5074989;28;20200;-69
2022/11/03 13:01:34;;;;;;;0.70;0.60;;;15.10;79.90;;;;;;5075095;28;20194;-70
2022/11/03 13:04:00;;;;;;;0.70;0.70;;;15.20;80.70;;;;;;5075333;28;20908;-70
2022/11/03 13:06:26;;;;;;;1.43;1.27;;;15.20;80.40;;;;;;5075271;28;20508;-68
2022/11/03 13:08:52;;;;;;;1.43;1.43;;;15.30;81.60;;;;;;5075034;28;20177;-69
2022/11/03 13:14:03;;;;;;;1.00;1.00;;;15.30;80.80;;;;;;5075146;28;20408;-70
2022/11/03 13:16:29;;;;;;;1.90;1.80;;;15.10;80.90;;;;;;5074966;28;20411;-70
2022/11/03 13:18:55;;;;;;;1.13;1.03;;;15.10;81.80;;;;;;5074823;28;20847;-71
2022/11/03 13:21:20;;;;;;;0.50;0.50;;;15.10;82.40;;;;;;5074474;28;20252;-72
2022/11/03 13:23:46;;;;;;;0.70;0.70;;;15.10;82.00;;;;;;5074696;28;20223;-68
2022/11/03 13:26:12;;;;;;;1.10;1.10;;;15.00;82.50;;;;;;5074685;28;20181;-70
2022/11/03 13:28:38;;;;;;;1.43;1.33;;;15.00;82.70;;;;;;5074666;28;20400;-70
2022/11/03 13:31:04;;;;;;;1.50;1.40;;;15.10;82.90;;;;;;5074223;28;20190;-71